VECC/CCU METAR and TAF weather

Enter ICAO airport designator
Station Type Date Time Source
VECC METAR 2019/02/21 00:00 UTC NOAA

VECC 210000Z 00000KT 2200 BR NSC 20/16 Q1017 NOSIG


Station Type Date Time Source
VECC Decoded METAR 2019/02/21 00:00 UTC NOAA

Calcutta / Dum Dum, India (VECC) 22-39N 088-27E 6M
Feb 20, 2019 - 07:00 PM EST / 2019.02.21 0000 UTC
Wind: Calm:0
Visibility: 1 mile(s):0
Weather: mist
Temperature: 68 F (20 C)
Dew Point: 60 F (16 C)
Relative Humidity: 77%
Pressure (altimeter): 30.03 in. Hg (1017 hPa)
ob: VECC 210000Z 00000KT 2200 BR NSC 20/16 Q1017 NOSIG
cycle: 0

Station Type Date Time Source
VECC TAF 2019/02/20 18:39 UTC NOAA

TAF VECC 201700Z 2018/2124 00000KT 2500 BR NSC
BECMG 2023/2101 1400 BR
BECMG 2103/2105 23005KT 2500 HZ
BECMG 2105/2107 33005KT 4000 HZ
BECMG 2112/2114 00000KT 2500 BR
BECMG 2122/2124 1400 BR


Example: see airport list